Time;durP1;ratioP1;P1;durP2;ratioP2;P2;SDS_P1;SDS_P2;PMS_P1;PMS_P2;Temp;Humidity;BMP_temperature;BMP_pressure;BME280_temperature;BME280_humidity;BME280_pressure;Samples;Min_cycle;Max_cycle;Signal;HPM_P1;HPM_P2
2022/04/15 00:00:04;;;;;;;30.83;21.23;;;;;;;7.06;94.93;102338.59;5062652;28;20119;-89
2022/04/15 00:02:29;;;;;;;28.73;20.60;;;;;;;7.10;95.16;102353.47;5062092;28;20508;-89
2022/04/15 00:04:56;;;;;;;24.97;16.53;;;;;;;7.08;95.29;102341.97;5045681;28;20059;-89
2022/04/15 00:07:23;;;;;;;31.97;23.60;;;;;;;7.09;95.48;102353.63;5062223;28;20097;-90
2022/04/15 00:09:48;;;;;;;31.00;21.00;;;;;;;7.07;95.75;102356.47;5058749;28;20295;-89
2022/04/15 00:12:18;;;;;;;29.27;20.00;;;;;;;6.93;95.66;102338.97;5062793;28;20643;-89
2022/04/15 00:14:44;;;;;;;26.63;17.77;;;;;;;6.78;95.19;102329.69;5062131;28;20075;-90
2022/04/15 00:17:10;;;;;;;19.07;13.00;;;;;;;6.81;95.31;102331.22;5062888;28;20534;-90
2022/04/15 00:19:36;;;;;;;25.20;18.63;;;;;;;6.87;95.15;102354.88;5059756;28;20055;-89
2022/04/15 00:22:01;;;;;;;25.17;18.27;;;;;;;6.80;95.39;102338.47;5058404;28;20572;-90
2022/04/15 00:24:27;;;;;;;30.93;20.10;;;;;;;6.75;95.75;102340.75;5060603;28;20044;-89
2022/04/15 00:26:52;;;;;;;27.40;20.43;;;;;;;6.68;95.90;102339.66;5060761;28;20044;-89
2022/04/15 00:29:18;;;;;;;34.00;21.83;;;;;;;6.63;96.31;102356.25;5062176;28;20055;-89
2022/04/15 00:31:43;;;;;;;29.77;20.93;;;;;;;6.51;96.50;102334.06;5060396;28;20033;-88
2022/04/15 00:34:09;;;;;;;28.87;19.87;;;;;;;6.54;96.46;102349.06;5060652;28;20473;-90
2022/04/15 00:36:34;;;;;;;28.53;20.00;;;;;;;6.45;95.71;102342.75;5059652;28;20370;-89
2022/04/15 00:38:59;;;;;;;24.37;15.73;;;;;;;6.62;96.10;102377.97;5061223;28;20062;-89
2022/04/15 00:41:25;;;;;;;21.87;15.63;;;;;;;6.54;96.45;102363.41;5060653;28;20070;-89
2022/04/15 00:43:55;;;;;;;29.23;19.83;;;;;;;6.51;96.49;102363.66;5061696;28;20048;-89
2022/04/15 00:46:21;;;;;;;23.53;16.63;;;;;;;6.46;96.11;102370.50;5059854;28;20162;-90
2022/04/15 00:48:46;;;;;;;23.67;15.77;;;;;;;6.51;96.41;102382.53;5060497;28;20571;-89
2022/04/15 00:51:12;;;;;;;20.30;13.80;;;;;;;6.35;96.35;102352.69;5060240;28;20036;-89
2022/04/15 00:53:40;;;;;;;20.07;14.03;;;;;;;6.32;95.88;102369.13;5091481;27;20043;-89
2022/04/15 00:56:08;;;;;;;23.07;17.03;;;;;;;6.16;96.28;102356.28;5076353;28;20040;-89
2022/04/15 00:58:36;;;;;;;25.20;17.27;;;;;;;6.24;96.55;102370.72;5061020;28;20048;-91
2022/04/15 01:01:02;;;;;;;26.83;19.37;;;;;;;6.29;97.19;102369.44;5059248;28;20029;-90
2022/04/15 01:03:29;;;;;;;32.47;22.40;;;;;;;6.19;97.03;102367.63;5060325;28;20033;-90
2022/04/15 01:05:57;;;;;;;26.87;18.73;;;;;;;6.08;97.54;102349.78;5059755;28;20546;-89
2022/04/15 01:08:24;;;;;;;25.10;16.07;;;;;;;6.29;97.68;102370.28;5060918;28;20036;-89
2022/04/15 01:10:52;;;;;;;26.13;16.07;;;;;;;6.18;98.27;102357.84;5060191;28;20043;-89
2022/04/15 01:13:20;;;;;;;101.90;14.03;;;;;;;6.25;98.69;102375.09;5062350;28;20121;-89
2022/04/15 01:15:47;;;;;;;26.00;18.23;;;;;;;6.12;98.53;102361.13;5057818;28;21919;-89
2022/04/15 01:18:12;;;;;;;31.53;21.53;;;;;;;6.24;98.53;102372.53;5060161;28;20077;-90
2022/04/15 01:20:39;;;;;;;29.70;20.63;;;;;;;6.24;98.60;102376.09;5059081;28;20021;-90
2022/04/15 01:23:09;;;;;;;24.90;16.27;;;;;;;6.32;98.75;102387.97;5060132;28;20408;-90
2022/04/15 01:25:35;;;;;;;38.03;15.80;;;;;;;6.29;98.73;102393.66;5060626;28;20550;-89
2022/04/15 01:28:00;;;;;;;25.43;17.60;;;;;;;6.23;98.48;102390.56;5059977;28;20039;-89
2022/04/15 01:30:26;;;;;;;22.70;16.30;;;;;;;6.22;98.44;102393.41;5061151;28;20067;-89
2022/04/15 01:32:51;;;;;;;48.00;13.47;;;;;;;6.23;98.52;102400.47;5061455;28;20036;-89
2022/04/15 01:35:19;;;;;;;100.30;13.20;;;;;;;6.14;98.49;102396.78;5060755;28;20048;-89
2022/04/15 01:37:46;;;;;;;20.83;14.47;;;;;;;6.15;98.47;102403.03;5060687;28;20080;-89
2022/04/15 01:40:13;;;;;;;22.20;15.23;;;;;;;6.10;98.63;102402.63;5093608;28;20044;-89
2022/04/15 01:42:40;;;;;;;23.53;16.23;;;;;;;6.07;98.54;102406.44;5060752;28;20463;-90
2022/04/15 01:45:06;;;;;;;25.50;17.47;;;;;;;5.90;98.70;102387.31;5093928;28;20032;-89
2022/04/15 01:47:32;;;;;;;24.60;16.70;;;;;;;5.96;98.56;102401.19;5060693;28;21403;-89
2022/04/15 01:49:57;;;;;;;26.97;17.80;;;;;;;5.94;98.35;102411.25;5062857;28;20480;-90
2022/04/15 01:52:23;;;;;;;26.80;18.10;;;;;;;5.85;98.42;102407.56;5060209;28;20035;-88
2022/04/15 01:54:49;;;;;;;26.13;18.10;;;;;;;5.79;98.69;102406.28;5044361;28;20547;-89
2022/04/15 01:57:15;;;;;;;28.60;18.47;;;;;;;5.72;98.79;102418.59;5061580;28;20037;-88
2022/04/15 01:59:41;;;;;;;25.77;16.93;;;;;;;5.70;98.94;102416.06;5062368;28;20112;-89
2022/04/15 02:02:07;;;;;;;22.50;15.73;;;;;;;5.58;98.90;102409.94;5060922;28;20044;-88
2022/04/15 02:04:33;;;;;;;24.60;16.53;;;;;;;5.64;98.72;102411.22;5061989;28;20060;-89
2022/04/15 02:06:59;;;;;;;18.63;12.50;;;;;;;5.69;98.65;102408.13;5060900;28;20135;-88
2022/04/15 02:09:24;;;;;;;39.60;10.60;;;;;;;5.67;98.79;102410.09;5062459;28;20036;-89
2022/04/15 02:11:49;;;;;;;17.10;10.60;;;;;;;5.52;98.52;102404.28;5092400;28;20815;-89
2022/04/15 02:14:18;;;;;;;246.43;11.70;;;;;;;5.57;98.52;102428.91;5059471;28;20063;-89
2022/04/15 02:16:45;;;;;;;17.67;10.60;;;;;;;5.54;98.57;102413.91;5091795;28;20476;-89
2022/04/15 02:19:10;;;;;;;39.73;9.73;;;;;;;5.53;98.56;102420.28;5059904;28;20039;-89
2022/04/15 02:21:36;;;;;;;40.43;10.13;;;;;;;5.52;98.60;102423.09;5059841;28;20049;-90
2022/04/15 02:24:01;;;;;;;43.53;11.83;;;;;;;5.56;98.52;102436.16;5059951;28;20035;-89
2022/04/15 02:26:27;;;;;;;30.60;13.43;;;;;;;5.54;98.67;102438.09;5060722;28;20037;-89
2022/04/15 02:28:52;;;;;;;56.07;14.10;;;;;;;5.51;99.24;102432.19;5059490;28;20432;-89
2022/04/15 02:31:17;;;;;;;36.73;12.67;;;;;;;5.48;99.23;102441.38;5059817;28;20036;-89
2022/04/15 02:33:43;;;;;;;18.97;13.33;;;;;;;5.44;99.15;102421.13;5091732;28;20110;-89
2022/04/15 02:36:08;;;;;;;211.23;16.13;;;;;;;5.35;99.44;102411.22;5060084;28;20032;-88
2022/04/15 02:38:34;;;;;;;30.20;16.13;;;;;;;5.37;99.90;102414.59;5060243;28;20044;-89
2022/04/15 02:41:01;;;;;;;80.03;15.80;;;;;;;5.40;100.00;102422.41;5061382;28;20401;-88
2022/04/15 02:43:31;;;;;;;45.67;10.83;;;;;;;5.31;100.00;102410.63;5061439;28;20075;-89
2022/04/15 02:46:06;;;;;;;70.30;10.30;;;;;;;5.24;100.00;102410.31;5062225;28;20036;-89
2022/04/15 02:48:32;;;;;;;17.55;9.73;;;;;;;5.37;99.82;102433.41;5065189;28;20060;-89
2022/04/15 02:50:59;;;;;;;16.90;9.73;;;;;;;5.40;99.50;102442.06;5081062;28;20071;-91
2022/04/15 02:53:24;;;;;;;20.90;13.43;;;;;;;5.39;99.72;102443.03;5063962;28;20039;-89
2022/04/15 02:55:50;;;;;;;15.47;9.57;;;;;;;5.34;99.77;102441.75;5064002;28;20037;-90
2022/04/15 02:58:16;;;;;;;14.60;9.60;;;;;;;5.35;99.32;102451.53;5062447;28;20108;-89
2022/04/15 03:00:41;;;;;;;13.17;9.13;;;;;;;5.15;99.41;102416.53;5064658;28;20397;-89
2022/04/15 03:03:06;;;;;;;10.40;7.57;;;;;;;5.23;99.11;102451.63;5065103;28;20028;-89
2022/04/15 03:05:32;;;;;;;14.97;10.17;;;;;;;5.21;99.04;102437.47;5066098;28;20040;-90
2022/04/15 03:07:58;;;;;;;18.00;12.07;;;;;;;5.21;99.12;102445.53;5064711;28;20039;-90
2022/04/15 03:10:23;;;;;;;17.83;11.50;;;;;;;5.19;99.17;102442.13;5065994;28;20482;-89
2022/04/15 03:12:49;;;;;;;18.23;10.33;;;;;;;5.14;99.18;102440.84;5066091;28;20029;-89
2022/04/15 03:15:15;;;;;;;13.87;8.23;;;;;;;5.08;98.85;102437.72;5064148;28;20482;-89
2022/04/15 03:17:41;;;;;;;24.33;14.73;;;;;;;5.10;99.17;102434.91;5065412;28;20153;-88
2022/04/15 03:20:08;;;;;;;243.63;13.40;;;;;;;5.03;99.50;102441.81;5080974;28;20468;-88
2022/04/15 03:22:38;;;;;;;165.73;12.30;;;;;;;4.81;99.34;102416.84;5046258;28;20060;-89
2022/04/15 03:25:06;;;;;;;33.40;10.73;;;;;;;4.94;98.96;102445.28;5097506;27;20376;-89
2022/04/15 03:27:32;;;;;;;204.87;20.20;;;;;;;4.92;99.83;102431.16;5032932;28;20396;-89
2022/04/15 03:29:58;;;;;;;359.53;23.47;;;;;;;4.99;100.00;102449.31;5064903;28;20032;-89
2022/04/15 03:32:24;;;;;;;75.40;22.47;;;;;;;5.02;100.00;102440.97;5064540;28;20082;-89
2022/04/15 03:34:52;;;;;;;135.80;23.07;;;;;;;5.02;100.00;102440.13;5050812;28;20039;-89
2022/04/15 03:37:18;;;;;;;86.37;25.03;;;;;;;5.16;100.00;102446.94;5065523;28;20434;-90
2022/04/15 03:39:43;;;;;;;47.77;28.60;;;;;;;5.16;100.00;102433.50;5063219;28;20040;-88
2022/04/15 03:42:08;;;;;;;58.77;31.53;;;;;;;5.31;100.00;102444.72;5098442;27;20440;-91
2022/04/15 03:44:34;;;;;;;126.73;33.67;;;;;;;5.38;100.00;102433.25;5062616;28;20078;-89
2022/04/15 03:46:59;;;;;;;114.67;33.23;;;;;;;5.53;100.00;102447.16;5094509;27;20070;-89
2022/04/15 03:49:25;;;;;;;92.80;33.90;;;;;;;5.55;100.00;102445.19;5060112;28;20043;-90
2022/04/15 03:51:50;;;;;;;143.97;35.90;;;;;;;5.63;100.00;102447.19;5060922;28;20036;-90
2022/04/15 03:54:15;;;;;;;136.53;34.50;;;;;;;5.62;100.00;102444.66;5061421;28;20624;-90
2022/04/15 03:56:41;;;;;;;211.23;34.83;;;;;;;5.76;100.00;102452.28;5061745;28;20120;-88
2022/04/15 03:59:07;;;;;;;232.77;34.17;;;;;;;5.85;100.00;102474.81;5061282;28;20120;-88
2022/04/15 04:01:32;;;;;;;184.97;32.37;;;;;;;5.82;100.00;102481.34;5061766;28;20040;-91
2022/04/15 04:03:57;;;;;;;112.57;28.67;;;;;;;5.68;100.00;102465.59;5061805;28;20036;-91
2022/04/15 04:06:23;;;;;;;117.23;28.43;;;;;;;5.72;100.00;102473.22;5060868;28;20186;-91
2022/04/15 04:08:51;;;;;;;131.97;29.50;;;;;;;5.69;100.00;102472.69;5062441;28;21316;-91
2022/04/15 04:11:18;;;;;;;105.07;28.97;;;;;;;5.60;100.00;102462.75;5062379;28;20535;-89
2022/04/15 04:13:44;;;;;;;86.37;26.93;;;;;;;5.64;100.00;102474.94;5061210;28;20066;-88
2022/04/15 04:16:11;;;;;;;123.17;27.43;;;;;;;5.65;100.00;102482.84;5061796;28;20043;-91
2022/04/15 04:18:41;;;;;;;164.03;26.10;;;;;;;5.56;100.00;102462.16;5059704;28;20051;-88
2022/04/15 04:21:07;;;;;;;131.53;27.37;;;;;;;5.67;100.00;102480.03;5061651;28;20032;-90
2022/04/15 04:23:33;;;;;;;138.77;29.37;;;;;;;5.68;100.00;102471.81;5060596;28;20115;-90
2022/04/15 04:25:59;;;;;;;154.70;28.80;;;;;;;5.72;100.00;102477.78;5059544;28;20047;-89
2022/04/15 04:28:24;;;;;;;107.60;28.07;;;;;;;5.72;100.00;102475.06;5076630;28;20032;-90
2022/04/15 04:30:49;;;;;;;109.67;26.70;;;;;;;5.75;100.00;102478.34;5045429;28;20051;-91
2022/04/15 04:33:15;;;;;;;87.30;27.77;;;;;;;5.72;100.00;102473.22;5093408;27;20036;-90
2022/04/15 04:35:40;;;;;;;67.13;25.53;;;;;;;5.77;100.00;102490.78;5060460;28;20594;-91
2022/04/15 04:38:07;;;;;;;118.70;25.87;;;;;;;5.76;100.00;102481.88;5059465;28;20314;-88
2022/04/15 04:40:33;;;;;;;119.73;28.00;;;;;;;5.85;100.00;102499.88;5076383;28;20073;-89
2022/04/15 04:42:59;;;;;;;99.03;26.83;;;;;;;5.82;100.00;102489.41;5075925;28;20484;-90
2022/04/15 04:45:25;;;;;;;112.30;28.20;;;;;;;5.97;100.00;102507.81;5093677;27;20032;-90
2022/04/15 04:47:52;;;;;;;90.97;28.60;;;;;;;5.95;100.00;102501.72;5059064;28;20090;-90
2022/04/15 04:50:18;;;;;;;108.60;30.23;;;;;;;6.08;100.00;102521.19;5061145;28;21377;-90
2022/04/15 04:52:46;;;;;;;82.27;30.63;;;;;;;5.99;100.00;102500.50;5060415;28;20068;-91
2022/04/15 04:55:13;;;;;;;67.70;30.43;;;;;;;5.91;100.00;102488.53;5059505;28;20727;-89
2022/04/15 04:57:39;;;;;;;70.03;29.77;;;;;;;6.18;100.00;102531.94;5060080;28;20073;-90
2022/04/15 05:00:07;;;;;;;65.00;28.40;;;;;;;6.00;100.00;102500.34;5060821;28;20115;-89
2022/04/15 05:02:32;;;;;;;93.57;29.27;;;;;;;5.97;100.00;102497.03;5076285;28;20071;-89
2022/04/15 05:04:58;;;;;;;66.27;30.13;;;;;;;6.11;100.00;102523.56;5060112;28;20116;-91
2022/04/15 05:07:23;;;;;;;63.33;29.60;;;;;;;6.06;100.00;102515.91;5075729;28;20037;-91
2022/04/15 05:09:49;;;;;;;60.30;27.70;;;;;;;6.11;100.00;102528.97;5060522;28;20552;-90
2022/04/15 05:12:15;;;;;;;56.63;26.57;;;;;;;6.08;100.00;102532.78;5060840;28;20293;-90
2022/04/15 05:14:40;;;;;;;50.67;25.63;;;;;;;6.16;100.00;102556.31;5060353;28;20032;-89
2022/04/15 05:17:06;;;;;;;55.73;26.43;;;;;;;6.03;100.00;102526.13;5059704;28;20293;-89
2022/04/15 05:19:32;;;;;;;52.77;26.57;;;;;;;6.18;100.00;102559.69;5058255;28;20180;-89
2022/04/15 05:21:57;;;;;;;51.60;26.17;;;;;;;6.17;100.00;102546.38;5075038;28;20041;-91
2022/04/15 05:24:22;;;;;;;48.07;28.07;;;;;;;6.06;100.00;102531.22;5057837;28;20041;-87
2022/04/15 05:26:48;;;;;;;47.30;27.43;;;;;;;6.10;100.00;102534.50;5059176;28;20493;-91
2022/04/15 05:29:13;;;;;;;50.63;27.57;;;;;;;6.33;100.00;102567.38;5061716;28;20090;-91
2022/04/15 05:31:39;;;;;;;47.33;28.00;;;;;;;6.20;100.00;102552.34;5058929;28;21114;-89
2022/04/15 05:34:04;;;;;;;44.30;27.23;;;;;;;6.17;100.00;102538.31;5060203;28;20173;-88
2022/04/15 05:36:30;;;;;;;46.70;27.83;;;;;;;6.30;100.00;102562.28;5059145;28;20220;-89
2022/04/15 05:38:55;;;;;;;46.90;26.60;;;;;;;6.35;100.00;102557.28;5058664;28;20053;-90
2022/04/15 05:41:21;;;;;;;40.50;25.23;;;;;;;6.39;100.00;102566.78;5058905;28;20590;-89
2022/04/15 05:43:46;;;;;;;41.60;25.07;;;;;;;6.35;100.00;102560.84;5057762;28;20044;-89
2022/04/15 05:46:12;;;;;;;38.67;24.03;;;;;;;6.48;100.00;102575.88;5042556;28;20142;-89
2022/04/15 05:48:38;;;;;;;42.80;25.37;;;;;;;6.56;100.00;102589.47;5059768;28;20052;-90
2022/04/15 05:51:03;;;;;;;38.67;23.77;;;;;;;6.47;100.00;102577.69;5060060;28;20061;-90
2022/04/15 05:53:29;;;;;;;35.93;23.90;;;;;;;6.55;100.00;102580.53;5056638;28;20032;-90
2022/04/15 05:55:55;;;;;;;39.30;23.67;;;;;;;6.73;100.00;102609.44;5059885;28;20369;-91
2022/04/15 05:58:21;;;;;;;41.17;25.10;;;;;;;6.62;100.00;102593.44;5075561;28;20060;-91
2022/04/15 06:00:46;;;;;;;36.60;24.00;;;;;;;6.66;100.00;102590.28;5059385;28;20239;-91
2022/04/15 06:03:12;;;;;;;35.87;24.20;;;;;;;6.61;100.00;102581.81;5059054;28;20043;-90
2022/04/15 06:05:37;;;;;;;35.60;22.50;;;;;;;6.66;100.00;102584.06;5059179;28;20036;-90
2022/04/15 06:08:03;;;;;;;36.13;22.33;;;;;;;6.74;100.00;102594.97;5060019;28;20105;-90
2022/04/15 06:10:30;;;;;;;33.77;22.43;;;;;;;6.69;100.00;102595.41;5059282;28;20037;-89
2022/04/15 06:13:06;;;;;;;32.63;20.90;;;;;;;6.80;100.00;102597.13;5057710;28;20903;-88
2022/04/15 06:15:32;;;;;;;31.17;20.60;;;;;;;6.85;100.00;102607.44;5061111;28;20024;-88
2022/04/15 06:17:59;;;;;;;33.53;21.63;;;;;;;6.92;100.00;102612.13;5091978;27;20032;-89
2022/04/15 06:20:25;;;;;;;32.20;20.90;;;;;;;6.86;100.00;102601.91;5061318;28;20043;-89
2022/04/15 06:22:50;;;;;;;30.87;20.90;;;;;;;6.86;100.00;102601.91;5062111;28;20032;-90
2022/04/15 06:25:16;;;;;;;31.97;20.13;;;;;;;6.91;100.00;102601.50;5062857;28;20051;-89
2022/04/15 06:27:41;;;;;;;31.53;20.67;;;;;;;7.00;100.00;102607.84;5062477;28;20380;-91
2022/04/15 06:30:08;;;;;;;34.60;20.83;;;;;;;7.09;100.00;102617.75;5064726;28;20529;-91
2022/04/15 06:32:34;;;;;;;31.20;21.03;;;;;;;7.09;100.00;102618.59;5064232;28;20039;-90
2022/04/15 06:38:21;;;;;;;35.27;21.50;;;;;;;7.19;100.00;102617.72;5066747;28;20051;-89
2022/04/15 06:40:46;;;;;;;34.30;22.13;;;;;;;7.21;100.00;102618.44;5063393;28;20423;-90
2022/04/15 06:43:14;;;;;;;33.73;21.23;;;;;;;7.21;100.00;102622.00;5062077;28;20155;-91
2022/04/15 06:45:39;;;;;;;32.30;20.63;;;;;;;7.34;100.00;102642.38;5070954;28;20101;-89
2022/04/15 06:48:05;;;;;;;31.30;19.90;;;;;;;7.35;100.00;102647.63;5069060;28;20085;-92
2022/04/15 06:50:31;;;;;;;31.00;19.97;;;;;;;7.33;100.00;102640.69;5061365;28;20109;-90
2022/04/15 06:52:56;;;;;;;31.17;20.20;;;;;;;7.30;100.00;102636.44;5062363;28;20048;-89
2022/04/15 06:55:22;;;;;;;32.90;20.57;;;;;;;7.40;100.00;102652.59;5062943;28;20032;-91
2022/04/15 06:57:47;;;;;;;29.93;20.57;;;;;;;7.25;100.00;102639.56;5062014;28;20224;-92
2022/04/15 07:00:13;;;;;;;33.90;21.00;;;;;;;7.50;100.00;102668.75;5062658;28;20658;-91
2022/04/15 07:02:40;;;;;;;28.43;18.87;;;;;;;7.36;100.00;102646.63;5059953;28;20089;-89
2022/04/15 07:05:06;;;;;;;28.70;19.50;;;;;;;7.36;100.00;102643.09;5063981;28;20037;-87
2022/04/15 07:07:32;;;;;;;26.30;17.67;;;;;;;7.38;100.00;102652.72;5094553;27;20523;-91
2022/04/15 07:09:58;;;;;;;25.70;17.63;;;;;;;7.36;100.00;102646.63;5062775;28;20548;-90
2022/04/15 07:12:23;;;;;;;26.60;18.47;;;;;;;7.40;100.00;102639.97;5062635;28;20177;-90
2022/04/15 07:14:48;;;;;;;27.87;17.93;;;;;;;7.54;100.00;102653.97;5061575;28;20336;-90
2022/04/15 07:17:14;;;;;;;25.70;17.70;;;;;;;7.63;100.00;102669.28;5062584;28;20071;-90
2022/04/15 07:19:39;;;;;;;26.23;16.97;;;;;;;7.51;100.00;102644.31;5061816;28;20024;-89
2022/04/15 07:22:05;;;;;;;27.03;17.27;;;;;;;7.66;100.00;102668.13;5063418;28;20119;-90
2022/04/15 07:24:33;;;;;;;25.30;16.50;;;;;;;7.66;100.00;102655.50;5061980;28;20537;-90
2022/04/15 07:26:59;;;;;;;27.40;17.40;;;;;;;7.81;99.87;102671.22;5062253;28;20257;-90
2022/04/15 07:29:26;;;;;;;23.13;14.57;;;;;;;7.73;97.75;102661.16;5063460;28;20043;-93
2022/04/15 07:31:54;;;;;;;22.27;13.80;;;;;;;7.85;97.25;102670.75;5068617;28;20036;-89
2022/04/15 07:34:20;;;;;;;22.07;13.33;;;;;;;7.86;96.83;102653.56;5065420;28;20040;-89
2022/04/15 07:36:53;;;;;;;18.60;13.10;;;;;;;8.13;95.48;102692.34;5105535;27;20024;-88
2022/04/15 07:39:20;;;;;;;20.57;12.80;;;;;;;8.15;94.62;102676.84;5068979;28;20384;-89
2022/04/15 07:41:45;;;;;;;19.53;12.10;;;;;;;8.14;92.59;102666.22;5069035;28;20294;-90
2022/04/15 07:44:12;;;;;;;19.47;12.83;;;;;;;8.17;92.68;102660.50;5068799;28;20109;-90
2022/04/15 07:46:38;;;;;;;20.53;13.10;;;;;;;8.24;92.22;102656.19;5068683;28;20067;-91
2022/04/15 07:49:05;;;;;;;20.10;12.73;;;;;;;8.53;91.57;102687.59;5067172;28;20025;-89
2022/04/15 07:51:31;;;;;;;19.27;13.10;;;;;;;8.54;92.06;102660.44;5072724;28;20510;-89
2022/04/15 07:53:57;;;;;;;18.77;11.47;;;;;;;8.64;89.61;102662.22;5067999;28;20158;-89
2022/04/15 07:56:22;;;;;;;17.37;11.57;;;;;;;8.93;89.76;102684.44;5068683;28;20107;-90
2022/04/15 07:58:48;;;;;;;18.20;11.27;;;;;;;8.89;87.96;102664.09;5072078;28;20021;-88
2022/04/15 08:01:14;;;;;;;18.03;11.63;;;;;;;9.22;87.78;102687.84;5066220;28;20021;-89
2022/04/15 08:03:40;;;;;;;18.27;11.30;;;;;;;9.30;86.56;102671.69;5068491;28;20044;-89
2022/04/15 08:06:05;;;;;;;16.27;10.60;;;;;;;9.37;84.94;102671.91;5067306;28;20071;-91
2022/04/15 08:08:30;;;;;;;17.53;10.73;;;;;;;9.70;86.25;102681.06;5071336;28;20048;-91
2022/04/15 08:10:57;;;;;;;15.17;10.47;;;;;;;9.69;85.29;102670.41;5070342;28;20056;-90
2022/04/15 08:13:23;;;;;;;14.90;10.13;;;;;;;9.95;83.80;102695.59;5099060;27;20040;-88
2022/04/15 08:15:53;;;;;;;12.60;8.43;;;;;;;9.76;79.32;102664.19;5069187;28;20025;-89
2022/04/15 08:18:19;;;;;;;12.20;8.50;;;;;;;9.93;81.96;102670.53;5065851;28;20363;-89
2022/04/15 08:20:44;;;;;;;10.73;7.73;;;;;;;10.21;79.37;102702.78;5070978;28;20032;-89
2022/04/15 08:23:09;;;;;;;12.20;7.40;;;;;;;10.04;77.75;102673.97;5080832;28;20039;-88
2022/04/15 08:25:36;;;;;;;11.07;7.20;;;;;;;10.02;76.48;102673.25;5102613;27;20543;-88
2022/04/15 08:28:03;;;;;;;9.00;7.10;;;;;;;10.25;76.63;102703.31;5053431;28;20502;-89
2022/04/15 08:30:30;;;;;;;10.87;7.33;;;;;;;10.23;75.77;102689.94;5071323;28;20080;-88
2022/04/15 08:32:57;;;;;;;9.50;7.10;;;;;;;10.27;76.39;102688.59;5065561;28;22813;-90
2022/04/15 08:35:23;;;;;;;8.73;6.60;;;;;;;10.29;73.96;102683.88;5100044;27;20414;-89
2022/04/15 08:37:48;;;;;;;11.27;6.77;;;;;;;10.42;75.64;102679.88;5066053;28;20049;-89
2022/04/15 08:40:14;;;;;;;9.87;6.43;;;;;;;10.61;75.42;102689.56;5047653;28;20044;-88
2022/04/15 08:42:41;;;;;;;9.33;6.70;;;;;;;10.61;74.16;102682.28;5074555;28;20051;-89
2022/04/15 08:45:10;;;;;;;12.90;7.00;;;;;;;10.68;73.68;102696.00;5065604;28;20467;-87
2022/04/15 08:47:40;;;;;;;10.87;6.90;;;;;;;10.66;74.55;102680.91;5069884;28;20036;-91
2022/04/15 08:50:07;;;;;;;8.87;6.50;;;;;;;10.76;74.26;102693.31;5098254;27;20446;-89
2022/04/15 08:52:39;;;;;;;7.23;6.40;;;;;;;10.93;71.98;102688.75;5067234;28;20066;-88
2022/04/15 08:55:05;;;;;;;9.33;6.90;;;;;;;10.69;69.86;102683.28;5065979;28;20044;-91
2022/04/15 08:57:31;;;;;;;12.20;7.07;;;;;;;11.02;75.63;102702.31;5068203;28;20036;-88
2022/04/15 08:59:57;;;;;;;12.23;7.03;;;;;;;11.06;72.58;102701.78;5067223;28;20029;-89
2022/04/15 09:02:33;;;;;;;8.60;6.60;;;;;;;11.02;71.59;102696.88;5069848;28;20043;-88
2022/04/15 09:05:00;;;;;;;10.07;6.33;;;;;;;11.18;69.96;102734.88;5069345;28;20082;-90
2022/04/15 09:07:33;;;;;;;7.23;6.07;;;;;;;11.07;71.28;102699.91;5065011;28;20055;-90
2022/04/15 09:10:01;;;;;;;8.40;5.73;;;;;;;11.18;69.61;102702.31;5072096;28;20056;-90
2022/04/15 09:12:29;;;;;;;10.80;6.60;;;;;;;11.09;69.75;102720.44;5068049;28;20085;-90
2022/04/15 09:15:14;;;;;;;9.13;6.90;;;;;;;10.91;70.49;102717.06;5041862;28;20038;-91
2022/04/15 09:17:49;;;;;;;12.95;7.28;;;;;;;11.11;72.68;102713.00;5066852;28;20117;-91
2022/04/15 09:20:15;;;;;;;9.00;5.87;;;;;;;11.34;70.03;102731.28;5062793;28;20057;-90
2022/04/15 09:22:41;;;;;;;8.50;6.13;;;;;;;11.28;68.79;102713.81;5101947;27;20104;-91
2022/04/15 09:25:06;;;;;;;9.00;6.10;;;;;;;11.41;68.75;102729.59;5082790;28;20031;-91
2022/04/15 09:27:35;;;;;;;7.17;5.90;;;;;;;11.40;67.22;102721.63;5066641;28;20069;-90
2022/04/15 09:30:00;;;;;;;7.40;6.07;;;;;;;11.53;69.46;102712.94;5069553;28;20047;-90
2022/04/15 09:32:27;;;;;;;6.83;5.93;;;;;;;11.68;68.21;102746.50;5064156;28;20036;-88
2022/04/15 09:35:04;;;;;;;8.73;6.30;;;;;;;11.70;69.86;102735.50;5069154;28;20028;-89
2022/04/15 09:37:34;;;;;;;8.80;6.17;;;;;;;11.49;68.05;102735.00;5065150;28;20094;-89
2022/04/15 09:40:14;;;;;;;10.20;6.60;;;;;;;11.55;68.18;102747.06;5103774;27;20032;-92
2022/04/15 09:42:50;;;;;;;7.03;6.20;;;;;;;11.38;67.63;102723.66;5067583;28;20032;-89
2022/04/15 09:45:18;;;;;;;9.00;6.23;;;;;;;11.51;68.73;102751.13;5065587;28;20032;-93
2022/04/15 09:47:51;;;;;;;7.47;6.03;;;;;;;11.52;67.32;102750.13;5067085;28;20031;-89
2022/04/15 09:50:27;;;;;;;8.40;6.03;;;;;;;11.69;68.37;102764.50;5071726;28;20031;-89
2022/04/15 09:52:54;;;;;;;7.80;6.50;;;;;;;11.51;68.51;102734.84;5098837;28;20317;-88
2022/04/15 09:55:20;;;;;;;10.30;6.53;;;;;;;11.64;69.50;102734.28;5072405;28;20035;-89
2022/04/15 09:57:48;;;;;;;7.97;6.30;;;;;;;11.59;67.58;102726.69;5069740;28;20041;-88
2022/04/15 10:00:16;;;;;;;8.63;5.70;;;;;;;11.62;68.10;102736.34;5065869;28;20548;-90
2022/04/15 10:02:43;;;;;;;9.83;6.17;;;;;;;11.59;68.11;102726.69;5090766;28;20261;-90
2022/04/15 10:05:09;;;;;;;8.60;6.50;;;;;;;11.57;68.22;102723.31;5072653;28;20064;-88
2022/04/15 10:07:35;;;;;;;8.60;5.90;;;;;;;11.49;66.51;102720.56;5073000;28;20052;-89
2022/04/15 10:10:02;;;;;;;8.47;5.67;;;;;;;11.55;66.71;102719.06;5056626;28;20028;-91
2022/04/15 10:12:36;;;;;;;8.60;6.47;;;;;;;11.71;66.89;102729.88;5069573;28;20024;-89
2022/04/15 10:15:02;;;;;;;8.50;5.93;;;;;;;11.74;66.04;102724.09;5070363;28;20020;-89
2022/04/15 10:17:28;;;;;;;10.20;6.47;;;;;;;11.77;65.90;102731.06;5069232;28;20062;-88
2022/04/15 10:19:54;;;;;;;7.07;5.97;;;;;;;11.49;64.92;102737.72;5075040;28;20028;-89
2022/04/15 10:22:19;;;;;;;6.90;5.87;;;;;;;11.45;65.99;102749.09;5070886;28;20043;-90
2022/04/15 10:24:45;;;;;;;6.97;6.00;;;;;;;11.63;65.73;102748.91;5068764;28;20032;-91
2022/04/15 10:27:11;;;;;;;10.80;6.60;;;;;;;11.75;67.22;102733.94;5073796;28;20024;-86
2022/04/15 10:29:36;;;;;;;10.33;6.70;;;;;;;11.91;67.44;102740.34;5067783;28;20051;-89
2022/04/15 10:32:15;;;;;;;6.70;5.87;;;;;;;12.02;66.10;102734.56;5073570;28;20028;-89
2022/04/15 10:34:48;;;;;;;7.63;5.87;;;;;;;12.08;66.44;102723.00;5070639;28;20032;-89
2022/04/15 10:37:14;;;;;;;7.73;5.50;;;;;;;12.07;63.05;102732.16;5071459;28;20028;-88
2022/04/15 10:39:50;;;;;;;7.77;5.40;;;;;;;12.14;63.27;102727.75;5071587;28;20492;-87
2022/04/15 10:42:20;;;;;;;6.60;5.77;;;;;;;12.28;63.17;102730.72;5073508;28;20063;-88
2022/04/15 10:44:46;;;;;;;7.97;6.00;;;;;;;12.52;65.52;102740.63;5067648;28;20093;-90
2022/04/15 10:47:26;;;;;;;7.87;5.80;;;;;;;12.64;63.86;102731.03;5066400;28;20107;-89
2022/04/15 10:50:03;;;;;;;8.20;6.50;;;;;;;12.89;65.73;102724.59;5068631;28;20025;-88
2022/04/15 10:52:36;;;;;;;8.43;6.00;;;;;;;12.79;63.30;102722.13;5069083;28;20047;-90
2022/04/15 10:55:07;;;;;;;9.50;6.10;;;;;;;12.79;64.39;102738.44;5101915;27;20067;-89
2022/04/15 10:57:43;;;;;;;9.73;6.10;;;;;;;12.81;63.01;102730.94;5073367;28;20106;-88
2022/04/15 11:03:18;;;;;;;7.80;5.80;;;;;;;13.17;61.59;102727.63;5068863;28;20438;-88
2022/04/15 11:05:43;;;;;;;7.20;6.00;;;;;;;13.42;62.29;102732.88;5069100;28;20030;-88
2022/04/15 11:08:17;;;;;;;10.27;6.47;;;;;;;13.37;63.28;102719.81;5068094;28;20413;-89
2022/04/15 11:10:47;;;;;;;8.63;6.33;;;;;;;13.36;60.98;102733.63;5101481;27;20086;-91
2022/04/15 11:13:39;;;;;;;7.50;5.73;;;;;;;13.38;62.10;102737.00;5070248;28;20156;-89
2022/04/15 11:16:06;;;;;;;9.00;6.20;;;;;;;13.34;61.40;102741.91;5068789;28;20016;-88
2022/04/15 11:18:59;;;;;;;6.93;6.00;;;;;;;13.47;64.66;102736.72;5071586;28;20435;-91